Time;durP1;ratioP1;P1;durP2;ratioP2;P2;SDS_P1;SDS_P2;PMS_P1;PMS_P2;Temp;Humidity;BMP_temperature;BMP_pressure;BME280_temperature;BME280_humidity;BME280_pressure;Samples;Min_cycle;Max_cycle;Signal;HPM_P1;HPM_P2
2023/05/02 00:02:05;;;;;;;8.03;7.80;;;21.30;62.90;;;;;;5072986;28;20550;-59
2023/05/02 00:04:32;;;;;;;8.20;7.70;;;21.30;62.90;;;;;;5072917;28;20988;-60
2023/05/02 00:06:59;;;;;;;7.90;7.70;;;21.30;62.90;;;;;;5080804;28;20485;-59
2023/05/02 00:09:27;;;;;;;7.80;7.60;;;21.30;62.90;;;;;;5093015;28;20803;-60
2023/05/02 00:11:54;;;;;;;7.77;7.57;;;21.30;63.00;;;;;;5093075;28;20758;-61
2023/05/02 00:14:21;;;;;;;7.37;7.17;;;21.20;62.90;;;;;;5092911;28;21003;-59
2023/05/02 00:16:48;;;;;;;7.53;7.30;;;21.20;62.90;;;;;;5093058;28;20474;-58
2023/05/02 00:19:14;;;;;;;8.00;7.70;;;21.20;63.00;;;;;;5082174;28;20526;-59
2023/05/02 00:21:41;;;;;;;8.20;7.93;;;21.20;63.00;;;;;;5083765;28;20546;-60
2023/05/02 00:24:08;;;;;;;8.00;7.70;;;21.20;63.00;;;;;;5072662;28;20539;-59
2023/05/02 00:26:36;;;;;;;7.40;7.20;;;21.20;63.00;;;;;;5072459;28;20534;-60
2023/05/02 00:29:03;;;;;;;8.20;8.00;;;21.20;63.00;;;;;;5072337;28;20884;-60
2023/05/02 00:31:30;;;;;;;9.00;8.70;;;21.20;63.00;;;;;;5083000;28;20871;-60
2023/05/02 00:33:57;;;;;;;8.27;7.97;;;21.20;62.90;;;;;;5092694;28;20871;-60
2023/05/02 00:36:26;;;;;;;8.43;8.03;;;21.20;62.90;;;;;;5092413;28;20999;-61
2023/05/02 00:38:53;;;;;;;7.53;7.23;;;21.20;62.80;;;;;;5092544;28;20857;-61
2023/05/02 00:41:20;;;;;;;8.20;7.90;;;21.20;62.80;;;;;;5092594;28;20859;-60
2023/05/02 00:43:48;;;;;;;8.30;8.00;;;21.20;62.90;;;;;;5076580;28;20995;-59
2023/05/02 00:46:15;;;;;;;8.27;8.03;;;21.20;62.90;;;;;;5072237;28;20527;-59
2023/05/02 00:48:44;;;;;;;7.70;7.50;;;21.20;62.80;;;;;;5072021;28;20471;-59
2023/05/02 00:51:12;;;;;;;8.60;8.20;;;21.20;62.80;;;;;;5079437;28;20482;-60
2023/05/02 00:53:39;;;;;;;7.50;7.30;;;21.20;62.80;;;;;;5092213;28;20449;-60
2023/05/02 00:56:07;;;;;;;7.30;7.00;;;21.10;62.70;;;;;;5092328;28;20537;-59
2023/05/02 00:58:35;;;;;;;8.07;7.53;;;21.10;62.70;;;;;;5092102;28;20827;-60
2023/05/02 01:01:19;;;;;;;8.13;7.93;;;21.10;62.70;;;;;;5085581;28;20864;-60
2023/05/02 01:03:55;;;;;;;7.77;7.47;;;21.10;62.70;;;;;;5071807;28;20882;-60
2023/05/02 01:06:34;;;;;;;8.10;7.80;;;21.10;62.60;;;;;;5072005;28;20478;-60
2023/05/02 01:09:10;;;;;;;8.10;7.90;;;21.10;62.60;;;;;;5071607;28;20534;-60
2023/05/02 01:11:48;;;;;;;7.70;7.50;;;21.10;62.70;;;;;;5071686;28;20558;-60
2023/05/02 01:14:15;;;;;;;8.07;7.77;;;21.10;62.70;;;;;;5086470;28;20537;-59
2023/05/02 01:16:45;;;;;;;7.50;7.30;;;21.10;62.70;;;;;;5091868;28;20539;-61
2023/05/02 01:19:25;;;;;;;8.00;7.70;;;21.10;62.80;;;;;;5091847;28;20532;-59
2023/05/02 01:21:53;;;;;;;9.10;8.70;;;21.10;62.80;;;;;;5092013;28;20544;-60
2023/05/02 01:24:26;;;;;;;8.27;7.97;;;21.10;62.80;;;;;;5091456;28;20459;-60
2023/05/02 01:27:07;;;;;;;8.10;7.80;;;21.10;62.80;;;;;;5090114;28;20477;-60
2023/05/02 01:29:37;;;;;;;7.90;7.63;;;21.00;62.70;;;;;;5091624;28;20533;-60
2023/05/02 01:32:06;;;;;;;8.23;7.93;;;21.00;62.60;;;;;;5091640;28;20561;-59
2023/05/02 01:34:36;;;;;;;8.30;8.00;;;21.00;62.70;;;;;;5091882;28;20449;-58
2023/05/02 01:37:06;;;;;;;8.87;8.57;;;21.00;62.70;;;;;;5089986;28;20530;-59
2023/05/02 01:39:34;;;;;;;7.70;7.50;;;21.00;62.70;;;;;;5091682;28;20492;-59
2023/05/02 01:42:04;;;;;;;7.77;7.47;;;21.00;62.70;;;;;;5091486;28;20458;-59
2023/05/02 01:44:35;;;;;;;7.80;7.50;;;21.00;62.60;;;;;;5091955;28;20435;-59
2023/05/02 01:47:05;;;;;;;8.20;8.00;;;21.00;62.80;;;;;;5086581;28;20447;-59
2023/05/02 01:49:34;;;;;;;8.13;7.83;;;21.00;62.70;;;;;;5071343;28;20975;-59
2023/05/02 01:52:05;;;;;;;8.90;8.20;;;21.00;62.60;;;;;;5071154;28;20483;-59
2023/05/02 01:54:35;;;;;;;8.07;7.77;;;21.00;62.70;;;;;;5071351;28;20467;-58
2023/05/02 01:57:04;;;;;;;8.10;7.80;;;20.90;62.60;;;;;;5083703;28;20527;-60
2023/05/02 01:59:34;;;;;;;8.37;7.97;;;20.90;62.70;;;;;;5084346;28;20443;-59
2023/05/02 02:02:04;;;;;;;7.50;7.30;;;20.90;62.60;;;;;;5091389;28;20505;-58
2023/05/02 02:04:32;;;;;;;8.40;8.10;;;20.90;62.80;;;;;;5091295;28;20525;-60
2023/05/02 02:07:06;;;;;;;7.90;7.60;;;20.90;62.70;;;;;;5089771;28;20533;-58
2023/05/02 02:09:33;;;;;;;8.00;7.80;;;20.90;62.80;;;;;;5091279;28;20474;-58
2023/05/02 02:12:05;;;;;;;8.00;7.70;;;20.90;62.80;;;;;;5091367;28;20549;-59
2023/05/02 02:14:34;;;;;;;7.63;7.43;;;20.90;63.60;;;;;;5091420;28;20443;-58
2023/05/02 02:17:08;;;;;;;7.90;7.67;;;20.90;62.70;;;;;;5089279;28;20516;-59
2023/05/02 02:19:35;;;;;;;8.53;8.27;;;20.90;62.70;;;;;;5071122;28;20530;-59
2023/05/02 02:22:05;;;;;;;8.40;8.00;;;20.90;62.70;;;;;;5071176;28;20491;-59
2023/05/02 02:24:32;;;;;;;7.90;7.70;;;20.90;62.90;;;;;;5071032;28;20535;-58
2023/05/02 02:26:59;;;;;;;7.90;7.60;;;20.90;62.90;;;;;;5070990;28;20522;-59
2023/05/02 02:29:26;;;;;;;7.80;7.50;;;20.90;62.90;;;;;;5071986;28;20448;-59
2023/05/02 02:31:53;;;;;;;9.17;8.67;;;20.90;62.90;;;;;;5070777;28;20544;-60
2023/05/02 02:34:21;;;;;;;8.30;8.00;;;20.80;62.70;;;;;;5070862;28;20555;-59
2023/05/02 02:36:56;;;;;;;8.50;8.20;;;20.90;62.90;;;;;;5071401;28;20921;-60
2023/05/02 02:39:36;;;;;;;7.33;7.13;;;20.90;62.90;;;;;;5074402;28;20525;-59
2023/05/02 02:42:09;;;;;;;7.80;7.53;;;20.90;62.80;;;;;;5083022;28;20916;-57
2023/05/02 02:44:47;;;;;;;7.60;7.40;;;20.90;62.80;;;;;;5077200;28;20531;-59
2023/05/02 02:47:22;;;;;;;7.77;7.47;;;20.80;62.70;;;;;;5074536;28;20518;-60
2023/05/02 02:49:58;;;;;;;8.03;7.73;;;20.80;62.80;;;;;;5074236;28;20449;-60
2023/05/02 02:52:33;;;;;;;7.30;7.10;;;20.80;62.70;;;;;;5074194;28;21031;-60
2023/05/02 02:55:06;;;;;;;7.53;7.33;;;20.80;62.80;;;;;;5078549;28;20476;-60
2023/05/02 02:57:39;;;;;;;7.70;7.50;;;20.80;62.80;;;;;;5074181;28;20440;-61
2023/05/02 03:00:12;;;;;;;8.63;8.33;;;20.80;62.80;;;;;;5074208;28;20524;-60
2023/05/02 03:02:42;;;;;;;8.50;8.20;;;20.80;62.80;;;;;;5074108;28;20486;-60
2023/05/02 03:05:11;;;;;;;7.80;7.50;;;20.80;62.90;;;;;;5074346;28;20477;-60
2023/05/02 03:07:38;;;;;;;8.50;8.10;;;20.80;62.90;;;;;;5093636;28;20450;-60
2023/05/02 03:10:06;;;;;;;7.90;7.60;;;20.80;62.90;;;;;;5095079;28;20477;-59
2023/05/02 03:12:33;;;;;;;7.50;7.30;;;20.80;63.00;;;;;;5094142;28;20517;-58
2023/05/02 03:15:10;;;;;;;8.10;7.70;;;20.80;63.00;;;;;;5094154;28;20470;-60
2023/05/02 03:17:36;;;;;;;7.90;7.60;;;20.80;62.90;;;;;;5092867;28;20522;-59
2023/05/02 03:20:04;;;;;;;7.87;7.57;;;20.80;62.90;;;;;;5073810;28;20529;-58
2023/05/02 03:22:32;;;;;;;7.77;7.47;;;20.80;62.90;;;;;;5073737;28;20473;-60
2023/05/02 03:24:59;;;;;;;7.40;7.20;;;20.80;63.00;;;;;;5073729;28;20534;-59
2023/05/02 03:27:26;;;;;;;7.63;7.40;;;20.80;63.00;;;;;;5073480;28;20538;-61
2023/05/02 03:29:53;;;;;;;8.10;7.80;;;20.80;63.00;;;;;;5074796;28;20518;-59
2023/05/02 03:32:20;;;;;;;8.43;8.13;;;20.80;62.90;;;;;;5073404;28;20540;-61
2023/05/02 03:34:47;;;;;;;8.50;8.20;;;20.80;62.90;;;;;;5073421;28;20535;-59
2023/05/02 03:37:14;;;;;;;8.30;8.00;;;20.80;62.90;;;;;;5073529;28;20538;-59
2023/05/02 03:39:42;;;;;;;7.60;7.40;;;20.80;62.90;;;;;;5073710;28;20535;-61
2023/05/02 03:42:09;;;;;;;7.53;7.27;;;20.80;62.90;;;;;;5076676;28;20541;-61
2023/05/02 03:44:35;;;;;;;7.97;7.77;;;20.80;63.00;;;;;;5093728;28;20902;-60
2023/05/02 03:47:02;;;;;;;8.17;7.87;;;20.80;63.00;;;;;;5093902;28;20521;-61
2023/05/02 03:49:29;;;;;;;7.40;7.20;;;20.70;62.80;;;;;;5093172;28;20442;-61
2023/05/02 03:51:56;;;;;;;8.10;7.80;;;20.70;62.90;;;;;;5093545;28;20593;-61
2023/05/02 03:54:23;;;;;;;7.70;7.50;;;20.70;63.00;;;;;;5092122;28;20538;-59
2023/05/02 03:56:53;;;;;;;7.90;7.70;;;20.80;63.00;;;;;;5093634;28;20446;-60
2023/05/02 03:59:20;;;;;;;7.33;7.13;;;20.70;62.90;;;;;;5093420;28;20485;-60
2023/05/02 04:01:50;;;;;;;8.77;8.30;;;20.70;62.90;;;;;;5093506;28;20541;-60
2023/05/02 04:04:16;;;;;;;7.87;7.60;;;20.70;63.00;;;;;;5093282;28;20499;-60
2023/05/02 04:06:43;;;;;;;9.63;9.23;;;20.70;63.00;;;;;;5093433;28;21012;-59
2023/05/02 04:09:10;;;;;;;8.80;8.50;;;20.70;63.00;;;;;;5093068;28;20477;-61
2023/05/02 04:11:37;;;;;;;8.80;8.40;;;20.70;63.00;;;;;;5081181;28;20578;-61
2023/05/02 04:14:05;;;;;;;8.73;8.43;;;20.70;62.90;;;;;;5073950;28;20479;-55
2023/05/02 04:16:32;;;;;;;8.93;8.63;;;20.70;63.20;;;;;;5074867;28;20953;-57
2023/05/02 04:18:59;;;;;;;8.30;8.00;;;20.70;63.30;;;;;;5074369;28;20479;-57
2023/05/02 04:21:26;;;;;;;7.83;7.60;;;20.70;63.60;;;;;;5084311;28;20509;-57
2023/05/02 04:23:53;;;;;;;8.40;8.10;;;20.60;63.80;;;;;;5094656;28;20478;-56
2023/05/02 04:26:20;;;;;;;8.00;7.60;;;20.70;64.10;;;;;;5095234;28;20474;-55
2023/05/02 04:28:47;;;;;;;7.50;7.30;;;20.70;64.10;;;;;;5095324;28;20443;-56
2023/05/02 04:31:15;;;;;;;8.03;7.73;;;20.60;64.00;;;;;;5094790;28;20554;-57
2023/05/02 04:33:42;;;;;;;8.00;7.70;;;20.60;64.20;;;;;;5084808;28;20475;-55
2023/05/02 04:36:10;;;;;;;8.53;8.23;;;20.70;64.50;;;;;;5074479;28;20486;-55
2023/05/02 04:38:36;;;;;;;7.77;7.47;;;20.60;64.30;;;;;;5074729;28;20808;-56
2023/05/02 04:41:04;;;;;;;7.73;7.43;;;20.60;64.50;;;;;;5074937;28;20487;-62
2023/05/02 04:43:30;;;;;;;8.23;7.90;;;20.60;64.70;;;;;;5074182;28;20475;-60
2023/05/02 04:45:57;;;;;;;8.03;7.73;;;20.60;64.80;;;;;;5074676;28;21019;-62
2023/05/02 04:48:26;;;;;;;7.70;7.40;;;20.60;65.00;;;;;;5074110;28;20818;-60
2023/05/02 04:50:53;;;;;;;9.37;8.97;;;20.60;64.50;;;;;;5074112;28;20475;-60
2023/05/02 04:53:22;;;;;;;10.33;9.63;;;20.70;65.10;;;;;;5094379;28;20446;-61
2023/05/02 04:55:49;;;;;;;9.67;8.67;;;20.70;66.40;;;;;;5094720;28;20485;-62
2023/05/02 04:58:16;;;;;;;11.97;10.67;;;20.70;67.20;;;;;;5094515;28;20477;-62
2023/05/02 05:00:43;;;;;;;10.40;9.23;;;20.70;69.10;;;;;;5093521;28;20450;-62
2023/05/02 05:03:10;;;;;;;10.70;9.83;;;20.70;68.90;;;;;;5092578;28;20871;-62
2023/05/02 05:05:38;;;;;;;10.90;9.20;;;20.80;68.10;;;;;;5092197;28;20520;-60
2023/05/02 05:08:05;;;;;;;11.67;10.70;;;20.80;71.60;;;;;;5078163;28;20559;-59
2023/05/02 05:10:32;;;;;;;10.87;9.13;;;20.80;77.30;;;;;;5076937;28;20522;-59
2023/05/02 05:12:59;;;;;;;10.00;9.07;;;20.70;79.00;;;;;;5076624;28;20522;-60
2023/05/02 05:15:26;;;;;;;9.90;9.10;;;20.70;78.90;;;;;;5076494;28;20494;-59
2023/05/02 05:17:53;;;;;;;10.63;9.60;;;20.70;78.70;;;;;;5075927;28;20443;-61
2023/05/02 05:20:21;;;;;;;10.93;9.83;;;20.70;77.80;;;;;;5076054;28;20513;-58
2023/05/02 05:22:49;;;;;;;12.83;12.03;;;20.70;77.50;;;;;;5075859;28;20470;-59
2023/05/02 05:25:16;;;;;;;9.77;9.07;;;20.70;77.50;;;;;;5075605;28;20474;-60
2023/05/02 05:27:43;;;;;;;10.27;9.60;;;20.70;76.60;;;;;;5074652;28;20482;-60
2023/05/02 05:30:11;;;;;;;11.53;10.60;;;20.70;76.20;;;;;;5075160;28;20534;-58
2023/05/02 05:32:37;;;;;;;10.87;9.97;;;20.70;75.50;;;;;;5095091;22;20606;-58
2023/05/02 05:35:05;;;;;;;10.43;9.50;;;20.70;75.40;;;;;;5093784;28;20470;-59
2023/05/02 05:37:32;;;;;;;11.17;9.97;;;20.70;74.90;;;;;;5092933;28;20521;-59
2023/05/02 05:40:00;;;;;;;10.10;9.30;;;20.70;74.50;;;;;;5093698;28;20841;-60
2023/05/02 05:42:27;;;;;;;10.00;9.50;;;20.70;73.90;;;;;;5093350;28;20527;-60
2023/05/02 05:44:54;;;;;;;9.47;8.73;;;20.70;73.50;;;;;;5093054;28;20526;-60
2023/05/02 05:47:21;;;;;;;10.70;9.90;;;20.70;73.10;;;;;;5093087;28;20456;-59
2023/05/02 05:49:52;;;;;;;9.10;8.40;;;20.70;72.80;;;;;;5093288;28;20951;-60
2023/05/02 05:52:19;;;;;;;10.70;10.03;;;20.70;72.60;;;;;;5093013;28;20482;-59
2023/05/02 05:54:46;;;;;;;10.63;9.70;;;20.70;72.20;;;;;;5093220;28;20538;-60
2023/05/02 05:57:14;;;;;;;9.30;8.80;;;20.70;71.90;;;;;;5093295;28;20482;-60
2023/05/02 05:59:41;;;;;;;9.00;8.60;;;20.70;71.70;;;;;;5093240;28;20478;-59
2023/05/02 06:02:08;;;;;;;10.37;9.57;;;20.70;71.40;;;;;;5093121;28;20541;-59
2023/05/02 06:04:35;;;;;;;9.30;8.50;;;20.70;71.10;;;;;;5093386;28;20480;-60
2023/05/02 06:07:01;;;;;;;9.33;8.63;;;20.70;71.00;;;;;;5093285;28;20537;-58
2023/05/02 06:09:28;;;;;;;9.90;9.10;;;20.70;70.70;;;;;;5093111;28;20474;-59
2023/05/02 06:11:55;;;;;;;8.00;7.60;;;20.70;70.60;;;;;;5095582;28;20553;-60
2023/05/02 06:14:24;;;;;;;9.80;8.90;;;20.70;70.30;;;;;;5097079;28;20521;-62
2023/05/02 06:16:50;;;;;;;9.23;8.47;;;20.60;70.10;;;;;;5097779;28;20442;-60
2023/05/02 06:19:17;;;;;;;9.20;8.30;;;20.60;69.90;;;;;;5097197;28;20545;-62
2023/05/02 06:21:44;;;;;;;9.13;8.63;;;20.60;69.80;;;;;;5097093;28;20545;-60
2023/05/02 06:24:11;;;;;;;8.53;8.10;;;20.60;69.60;;;;;;5096812;28;20485;-61
2023/05/02 06:26:38;;;;;;;7.63;7.30;;;20.60;69.30;;;;;;5097167;28;20474;-59
2023/05/02 06:29:05;;;;;;;8.60;8.13;;;20.70;69.30;;;;;;5096587;28;20505;-59
2023/05/02 06:31:33;;;;;;;8.27;7.80;;;20.60;69.00;;;;;;5096544;28;20524;-59
2023/05/02 06:34:00;;;;;;;9.47;8.97;;;20.60;68.90;;;;;;5096493;28;20521;-61
2023/05/02 06:36:27;;;;;;;9.30;8.60;;;20.60;68.70;;;;;;5096190;28;20481;-61
2023/05/02 06:38:54;;;;;;;8.17;7.60;;;20.60;68.60;;;;;;5096839;28;20446;-59
2023/05/02 06:41:20;;;;;;;9.37;8.67;;;20.60;68.40;;;;;;5096719;28;20490;-57
2023/05/02 06:43:47;;;;;;;8.63;8.10;;;20.60;68.30;;;;;;5096397;28;20495;-59
2023/05/02 06:46:14;;;;;;;9.03;8.13;;;20.60;68.10;;;;;;5096711;28;20529;-59
2023/05/02 06:48:42;;;;;;;7.63;7.20;;;20.60;68.00;;;;;;5096071;28;20450;-59
2023/05/02 06:51:09;;;;;;;7.97;7.67;;;20.60;67.90;;;;;;5096560;28;20538;-57
2023/05/02 06:53:36;;;;;;;7.77;7.43;;;20.60;67.70;;;;;;5096146;28;20526;-60
2023/05/02 06:56:04;;;;;;;8.20;7.90;;;20.60;67.60;;;;;;5096341;28;20477;-59
2023/05/02 06:58:31;;;;;;;8.77;8.37;;;20.60;67.40;;;;;;5095828;28;20911;-60
2023/05/02 07:00:58;;;;;;;7.87;7.50;;;20.60;67.30;;;;;;5096531;28;20954;-60
2023/05/02 07:03:25;;;;;;;8.60;8.30;;;20.60;67.20;;;;;;5096153;28;20521;-59
2023/05/02 07:05:53;;;;;;;7.87;7.50;;;20.60;67.20;;;;;;5096035;28;20454;-60
2023/05/02 07:08:21;;;;;;;7.60;7.30;;;20.60;67.10;;;;;;5095949;28;20469;-59
2023/05/02 07:10:48;;;;;;;7.90;7.60;;;20.60;67.00;;;;;;5096075;28;20565;-60
2023/05/02 07:13:15;;;;;;;8.07;7.50;;;20.60;66.90;;;;;;5095632;28;20590;-60
2023/05/02 07:15:43;;;;;;;7.70;7.40;;;20.60;66.80;;;;;;5096063;28;20449;-59
2023/05/02 07:18:09;;;;;;;7.87;7.40;;;20.60;66.70;;;;;;5095876;28;20533;-60
2023/05/02 07:20:37;;;;;;;7.97;7.57;;;20.60;66.60;;;;;;5096007;28;20525;-59
2023/05/02 07:23:05;;;;;;;7.80;7.13;;;20.60;66.50;;;;;;5095270;28;20470;-58
2023/05/02 07:25:32;;;;;;;8.83;8.43;;;20.60;66.50;;;;;;5095703;28;20504;-58
2023/05/02 07:27:59;;;;;;;7.50;7.10;;;20.60;66.40;;;;;;5095589;28;20529;-60
2023/05/02 07:30:26;;;;;;;8.87;8.37;;;20.60;66.20;;;;;;5096063;28;20478;-59
2023/05/02 07:32:53;;;;;;;8.67;8.17;;;20.60;66.20;;;;;;5095063;28;20565;-59
2023/05/02 07:35:20;;;;;;;7.67;7.37;;;20.60;66.10;;;;;;5095609;28;20470;-59
2023/05/02 07:37:47;;;;;;;8.57;8.17;;;20.60;66.00;;;;;;5095628;28;20482;-59
2023/05/02 07:40:15;;;;;;;8.10;7.73;;;20.60;65.90;;;;;;5095689;28;20474;-59
2023/05/02 07:42:43;;;;;;;7.80;7.60;;;20.60;65.80;;;;;;5095272;28;20546;-60
2023/05/02 07:45:10;;;;;;;7.47;7.10;;;20.60;65.70;;;;;;5095330;28;20958;-59
2023/05/02 07:47:37;;;;;;;8.30;7.90;;;20.60;65.70;;;;;;5095003;28;20461;-59
2023/05/02 07:50:05;;;;;;;7.57;7.27;;;20.60;65.60;;;;;;5095775;28;20786;-60
2023/05/02 07:52:32;;;;;;;7.80;7.37;;;20.50;65.40;;;;;;5094940;28;20835;-59
2023/05/02 07:54:59;;;;;;;8.13;7.63;;;20.50;65.30;;;;;;5095320;28;20572;-60
2023/05/02 07:57:27;;;;;;;8.23;7.83;;;20.60;65.30;;;;;;5095026;28;20493;-59
2023/05/02 07:59:56;;;;;;;8.27;7.87;;;20.50;65.20;;;;;;5094771;28;20447;-59
2023/05/02 08:02:22;;;;;;;7.50;7.30;;;20.50;65.20;;;;;;5094954;28;20469;-60
2023/05/02 08:04:49;;;;;;;7.90;7.50;;;20.50;65.10;;;;;;5095374;28;20549;-59
2023/05/02 08:07:16;;;;;;;7.70;7.40;;;20.50;65.00;;;;;;5095753;28;20887;-59
2023/05/02 08:09:43;;;;;;;7.53;7.30;;;20.50;64.90;;;;;;5095418;28;20526;-59
2023/05/02 08:12:10;;;;;;;7.50;7.20;;;20.50;64.90;;;;;;5094766;28;20490;-59
2023/05/02 08:14:38;;;;;;;7.40;7.20;;;20.50;64.90;;;;;;5094925;28;20887;-60
2023/05/02 08:17:05;;;;;;;7.70;7.40;;;20.50;64.80;;;;;;5094828;28;20505;-61
2023/05/02 08:19:32;;;;;;;7.30;7.00;;;20.50;64.80;;;;;;5094934;28;20457;-59
2023/05/02 08:21:59;;;;;;;7.00;6.80;;;20.50;64.80;;;;;;5094484;28;20504;-60
2023/05/02 08:24:26;;;;;;;7.40;7.20;;;20.50;64.70;;;;;;5094269;28;20969;-58
2023/05/02 08:26:53;;;;;;;6.87;6.67;;;20.50;64.70;;;;;;5094484;28;20457;-59
2023/05/02 08:29:20;;;;;;;7.13;6.93;;;20.50;64.60;;;;;;5094280;28;20470;-59
2023/05/02 08:31:48;;;;;;;7.33;7.13;;;20.50;64.60;;;;;;5093836;28;20478;-59
2023/05/02 08:34:15;;;;;;;7.43;7.17;;;20.50;64.60;;;;;;5093190;28;20529;-59
2023/05/02 08:36:42;;;;;;;7.70;7.10;;;20.50;64.50;;;;;;5094565;28;20962;-59
2023/05/02 08:39:10;;;;;;;7.47;7.20;;;20.50;64.50;;;;;;5094092;28;20991;-60
2023/05/02 08:41:37;;;;;;;6.97;6.67;;;20.50;64.40;;;;;;5093987;28;20500;-60
2023/05/02 08:44:06;;;;;;;8.20;7.90;;;20.50;64.40;;;;;;5093801;28;20471;-59
2023/05/02 08:46:35;;;;;;;7.73;7.40;;;20.50;64.40;;;;;;5093854;28;20940;-60
2023/05/02 08:49:05;;;;;;;7.27;7.03;;;20.50;64.40;;;;;;5093872;28;20450;-60
2023/05/02 08:51:33;;;;;;;7.83;7.43;;;20.50;64.30;;;;;;5093857;28;20873;-60
2023/05/02 08:54:01;;;;;;;7.17;6.97;;;20.50;64.30;;;;;;5093638;28;20561;-58
2023/05/02 08:56:28;;;;;;;7.17;6.97;;;20.50;64.20;;;;;;5093778;28;20521;-59
2023/05/02 08:58:55;;;;;;;6.60;6.40;;;20.50;64.20;;;;;;5093394;28;20525;-59
2023/05/02 09:01:24;;;;;;;7.97;7.37;;;20.50;64.10;;;;;;5093589;28;20502;-58
2023/05/02 09:03:51;;;;;;;7.30;7.07;;;20.50;64.10;;;;;;5093497;28;20442;-58
2023/05/02 09:06:21;;;;;;;6.93;6.63;;;20.50;64.00;;;;;;5094063;28;20442;-60
2023/05/02 09:08:51;;;;;;;6.53;6.40;;;20.50;63.90;;;;;;5093084;28;20434;-59
2023/05/02 09:11:19;;;;;;;7.30;6.93;;;20.50;63.90;;;;;;5093359;28;20803;-59
2023/05/02 09:13:47;;;;;;;6.50;6.30;;;20.50;63.90;;;;;;5093281;28;20570;-60
2023/05/02 09:16:15;;;;;;;6.87;6.67;;;20.50;63.80;;;;;;5093273;28;20510;-60
2023/05/02 09:18:43;;;;;;;7.07;6.87;;;20.50;63.80;;;;;;5093369;28;20525;-60
2023/05/02 09:21:12;;;;;;;6.57;6.43;;;20.50;63.80;;;;;;5093488;28;20442;-60
2023/05/02 09:23:41;;;;;;;7.03;6.83;;;20.50;63.80;;;;;;5093587;28;20475;-61
2023/05/02 09:26:18;;;;;;;7.17;6.97;;;20.50;63.70;;;;;;5094039;28;20541;-60
2023/05/02 09:28:46;;;;;;;6.47;6.30;;;20.50;63.70;;;;;;5094452;28;20486;-59
2023/05/02 09:31:15;;;;;;;6.90;6.70;;;20.50;63.70;;;;;;5094268;28;20473;-59
2023/05/02 09:33:42;;;;;;;6.80;6.57;;;20.50;63.50;;;;;;5093957;28;20564;-60
2023/05/02 09:36:12;;;;;;;7.73;7.53;;;20.50;63.40;;;;;;5094122;28;20877;-58
2023/05/02 09:38:41;;;;;;;7.30;7.10;;;20.50;63.40;;;;;;5093810;28;20472;-59
2023/05/02 09:41:08;;;;;;;7.43;7.13;;;20.50;63.30;;;;;;5093977;28;20478;-60
2023/05/02 09:43:35;;;;;;;6.73;6.53;;;20.50;63.30;;;;;;5096364;28;20811;-61
2023/05/02 09:46:05;;;;;;;7.30;7.00;;;20.50;63.30;;;;;;5097497;28;20470;-58
2023/05/02 09:48:33;;;;;;;7.53;7.13;;;20.50;63.20;;;;;;5100965;28;20492;-61
2023/05/02 09:51:01;;;;;;;7.37;7.17;;;20.50;63.20;;;;;;5101004;28;20873;-59
2023/05/02 09:53:28;;;;;;;7.73;7.50;;;20.50;63.10;;;;;;5100307;28;20493;-60
2023/05/02 09:56:07;;;;;;;7.67;7.47;;;20.50;63.10;;;;;;5101609;28;20450;-61
2023/05/02 09:58:33;;;;;;;7.17;6.97;;;20.50;63.00;;;;;;5100584;28;20864;-61
2023/05/02 10:01:00;;;;;;;6.80;6.70;;;20.50;63.00;;;;;;5100996;28;20851;-57
2023/05/02 10:03:28;;;;;;;7.63;7.30;;;20.50;62.90;;;;;;5100880;28;20862;-59
2023/05/02 10:05:56;;;;;;;7.00;6.80;;;20.50;62.90;;;;;;5100961;28;20438;-60
2023/05/02 10:08:27;;;;;;;7.50;7.30;;;20.50;62.80;;;;;;5100950;28;20481;-59
2023/05/02 10:10:56;;;;;;;7.60;7.40;;;20.50;62.80;;;;;;5100530;28;20529;-59
2023/05/02 10:13:30;;;;;;;7.37;7.17;;;20.50;62.80;;;;;;5098517;28;20514;-61
2023/05/02 10:16:00;;;;;;;6.83;6.63;;;20.50;62.70;;;;;;5098391;28;20437;-59
2023/05/02 10:18:29;;;;;;;7.23;7.03;;;20.40;62.50;;;;;;5098520;28;20442;-60
2023/05/02 10:21:01;;;;;;;6.90;6.70;;;20.50;62.60;;;;;;5098555;28;20874;-59
2023/05/02 10:23:29;;;;;;;6.90;6.70;;;20.50;62.60;;;;;;5098060;28;20481;-58
2023/05/02 10:25:59;;;;;;;7.73;7.43;;;20.50;62.50;;;;;;5098496;28;20442;-60
2023/05/02 10:28:28;;;;;;;7.43;7.23;;;20.50;62.50;;;;;;5097196;28;20450;-59
2023/05/02 10:30:55;;;;;;;7.30;7.10;;;20.50;62.50;;;;;;5097308;28;20503;-58
2023/05/02 10:33:23;;;;;;;8.13;7.83;;;20.50;62.40;;;;;;5097497;28;20509;-60
2023/05/02 10:35:50;;;;;;;8.00;7.60;;;20.50;62.40;;;;;;5097502;28;20477;-59
2023/05/02 10:38:20;;;;;;;7.30;7.10;;;20.50;62.20;;;;;;5096737;28;20446;-59
2023/05/02 10:40:54;;;;;;;8.00;7.80;;;20.50;63.00;;;;;;5096665;28;20537;-58
2023/05/02 10:43:24;;;;;;;7.73;7.43;;;20.50;62.20;;;;;;5097232;28;20484;-59
2023/05/02 10:45:54;;;;;;;7.57;7.17;;;20.50;62.20;;;;;;5097208;28;20452;-57
2023/05/02 10:48:23;;;;;;;7.90;7.60;;;20.50;62.20;;;;;;5096698;28;20450;-60
2023/05/02 10:50:52;;;;;;;7.70;7.50;;;20.50;62.10;;;;;;5097310;28;20454;-59
2023/05/02 10:53:26;;;;;;;7.57;7.27;;;20.50;62.10;;;;;;5096714;28;20477;-59
2023/05/02 10:56:16;;;;;;;7.43;7.23;;;20.50;62.00;;;;;;5096457;28;20517;-60
2023/05/02 10:58:45;;;;;;;7.60;7.40;;;20.50;62.00;;;;;;5095485;28;20454;-59
2023/05/02 11:01:36;;;;;;;7.77;7.57;;;20.50;61.90;;;;;;5096532;28;20985;-61
2023/05/02 11:04:04;;;;;;;7.63;7.40;;;20.50;61.90;;;;;;5097085;28;20450;-59
2023/05/02 11:06:33;;;;;;;7.87;7.57;;;20.50;61.90;;;;;;5096601;28;20470;-57
2023/05/02 11:09:30;;;;;;;7.67;7.20;;;20.50;61.90;;;;;;5096064;28;20472;-58
2023/05/02 11:11:57;;;;;;;7.33;7.13;;;20.50;61.80;;;;;;5096386;28;20545;-58
2023/05/02 11:14:47;;;;;;;7.47;7.27;;;20.50;61.80;;;;;;5096555;28;20569;-60
2023/05/02 11:17:16;;;;;;;7.40;7.20;;;20.50;61.80;;;;;;5096122;28;20446;-59
2023/05/02 11:20:24;;;;;;;8.33;7.77;;;20.50;61.70;;;;;;5096361;28;20438;-59
2023/05/02 11:22:51;;;;;;;7.80;7.37;;;20.50;61.70;;;;;;5096480;28;20520;-60
2023/05/02 11:25:36;;;;;;;7.30;7.17;;;20.50;61.70;;;;;;5096434;28;20542;-59
2023/05/02 11:28:04;;;;;;;7.40;7.20;;;20.50;61.70;;;;;;5095878;28;20438;-58
2023/05/02 11:30:38;;;;;;;6.83;6.73;;;20.50;61.70;;;;;;5096318;28;20438;-60
2023/05/02 11:33:20;;;;;;;7.43;7.20;;;20.50;61.60;;;;;;5094318;28;20564;-58
2023/05/02 11:35:48;;;;;;;7.43;7.23;;;20.50;61.50;;;;;;5093912;28;20442;-58
2023/05/02 11:38:19;;;;;;;7.33;7.10;;;20.50;61.50;;;;;;5093735;28;20438;-55
2023/05/02 11:40:59;;;;;;;7.30;7.10;;;20.50;61.50;;;;;;5093742;28;20536;-58
2023/05/02 11:43:28;;;;;;;7.30;7.10;;;20.50;61.50;;;;;;5093627;28;20519;-58
2023/05/02 11:45:55;;;;;;;7.57;7.37;;;20.50;61.30;;;;;;5093796;28;20450;-59
2023/05/02 11:48:26;;;;;;;7.70;7.43;;;20.50;61.20;;;;;;5093450;28;20442;-58
2023/05/02 11:50:55;;;;;;;7.53;7.33;;;20.50;61.20;;;;;;5093585;28;20450;-59
2023/05/02 11:53:24;;;;;;;7.83;7.63;;;20.50;61.10;;;;;;5093355;28;20485;-59
2023/05/02 11:55:52;;;;;;;7.50;7.20;;;20.50;61.10;;;;;;5093318;28;20485;-60
2023/05/02 11:58:20;;;;;;;7.30;7.20;;;20.50;61.80;;;;;;5093325;28;20482;-57
2023/05/02 12:00:47;;;;;;;7.00;6.80;;;20.50;61.00;;;;;;5093279;28;20525;-58
2023/05/02 12:03:28;;;;;;;7.60;7.40;;;20.50;61.00;;;;;;5093084;28;20458;-59
2023/05/02 12:05:55;;;;;;;7.40;7.20;;;20.50;60.90;;;;;;5093186;28;20525;-58
2023/05/02 12:08:25;;;;;;;7.23;7.03;;;20.50;60.80;;;;;;5092801;28;20876;-58
2023/05/02 12:10:53;;;;;;;7.37;7.17;;;20.50;60.70;;;;;;5093079;28;20507;-54
2023/05/02 12:13:22;;;;;;;7.43;7.27;;;20.50;60.70;;;;;;5093114;28;20573;-59
2023/05/02 12:15:50;;;;;;;6.97;6.87;;;20.50;60.70;;;;;;5092916;28;20533;-58
2023/05/02 12:18:18;;;;;;;7.20;7.00;;;20.50;60.70;;;;;;5092870;28;20449;-59
2023/05/02 12:20:46;;;;;;;7.60;7.40;;;20.50;60.70;;;;;;5092885;28;20455;-59
2023/05/02 12:23:14;;;;;;;7.13;6.93;;;20.50;60.70;;;;;;5092836;28;20454;-59
2023/05/02 12:25:42;;;;;;;7.63;7.43;;;20.50;60.70;;;;;;5092882;28;20446;-58
2023/05/02 12:28:10;;;;;;;7.73;7.53;;;20.50;60.70;;;;;;5092709;28;20534;-59
2023/05/02 12:30:39;;;;;;;7.40;7.20;;;20.50;60.70;;;;;;5092811;28;20839;-58
2023/05/02 12:33:07;;;;;;;7.40;7.20;;;20.50;60.70;;;;;;5092362;28;20510;-58
2023/05/02 12:35:35;;;;;;;7.30;7.10;;;20.50;60.70;;;;;;5092564;28;20860;-58
2023/05/02 12:38:11;;;;;;;7.27;7.07;;;20.60;60.70;;;;;;5092506;28;20443;-56
2023/05/02 12:40:38;;;;;;;7.10;7.00;;;20.60;60.70;;;;;;5092638;28;20864;-57
2023/05/02 12:43:09;;;;;;;8.10;7.90;;;20.60;60.70;;;;;;5092344;28;20471;-58
2023/05/02 12:45:36;;;;;;;7.27;7.00;;;20.60;60.70;;;;;;5092439;28;20504;-55
2023/05/02 12:48:17;;;;;;;7.60;7.40;;;20.60;60.60;;;;;;5092217;28;20538;-56
2023/05/02 12:50:44;;;;;;;7.10;6.90;;;20.60;60.60;;;;;;5092394;28;20488;-55
2023/05/02 12:53:12;;;;;;;7.07;6.97;;;20.60;60.50;;;;;;5092188;28;20490;-57
2023/05/02 12:55:40;;;;;;;7.03;6.83;;;20.60;60.50;;;;;;5092096;28;20534;-55